Time;durP1;ratioP1;P1;durP2;ratioP2;P2;SDS_P1;SDS_P2;PMS_P1;PMS_P2;Temp;Humidity;BMP_temperature;BMP_pressure;BME280_temperature;BME280_humidity;BME280_pressure;Samples;Min_cycle;Max_cycle;Signal;HPM_P1;HPM_P2
2023/01/14 00:00:25;;;;;;;57.22;25.30;;;;;;;;;;10429306;28;20036;-75
2023/01/14 00:05:26;;;;;;;62.57;26.53;;;;;;;;;;10430321;28;20392;-77
2023/01/14 00:10:26;;;;;;;56.20;23.77;;;;;;;;;;10429837;28;20310;-74
2023/01/14 00:15:26;;;;;;;35.97;17.70;;;;;;;;;;10429699;28;20025;-75
2023/01/14 00:20:30;;;;;;;40.72;18.08;;;;;;;;;;10429614;28;20017;-75
2023/01/14 00:25:33;;;;;;;38.83;18.70;;;;;;;;;;10434744;28;20112;-76
2023/01/14 00:30:33;;;;;;;42.13;19.13;;;;;;;;;;10423068;28;20068;-73
2023/01/14 00:35:34;;;;;;;48.13;18.70;;;;;;;;;;10390004;28;20025;-72
2023/01/14 00:40:34;;;;;;;43.50;18.73;;;;;;;;;;10426562;28;20488;-76
2023/01/14 00:45:34;;;;;;;41.28;18.58;;;;;;;;;;10428144;28;20272;-76
2023/01/14 00:50:35;;;;;;;40.30;18.13;;;;;;;;;;10422179;28;20036;-75
2023/01/14 00:55:35;;;;;;;52.00;18.38;;;;;;;;;;10417541;28;20036;-76
2023/01/14 01:00:36;;;;;;;46.67;19.35;;;;;;;;;;10445814;28;20024;-74
2023/01/14 01:05:36;;;;;;;44.53;21.48;;;;;;;;;;10428034;28;20031;-71
2023/01/14 01:10:36;;;;;;;51.20;24.67;;;;;;;;;;10415588;28;20032;-71
2023/01/14 01:15:37;;;;;;;46.22;22.15;;;;;;;;;;10442250;28;20115;-75
2023/01/14 01:20:39;;;;;;;44.67;20.75;;;;;;;;;;10439213;28;20094;-75
2023/01/14 01:25:39;;;;;;;53.60;21.65;;;;;;;;;;10441200;28;20542;-72
2023/01/14 01:30:40;;;;;;;52.88;22.70;;;;;;;;;;10446117;28;20045;-70
2023/01/14 01:35:40;;;;;;;50.53;20.33;;;;;;;;;;10443133;28;20028;-76
2023/01/14 01:40:40;;;;;;;49.63;22.02;;;;;;;;;;10426493;28;20086;-75
2023/01/14 01:45:47;;;;;;;50.90;20.83;;;;;;;;;;10444341;28;20037;-77
2023/01/14 01:51:08;;;;;;;50.60;20.65;;;;;;;;;;10425728;28;20493;-71
2023/01/14 01:56:11;;;;;;;53.67;22.08;;;;;;;;;;10424945;28;20064;-75
2023/01/14 02:01:12;;;;;;;43.03;18.58;;;;;;;;;;10424136;28;20028;-76
2023/01/14 02:06:13;;;;;;;49.90;21.98;;;;;;;;;;10443660;28;20566;-78
2023/01/14 02:11:17;;;;;;;50.85;22.85;;;;;;;;;;10443039;28;20029;-73
2023/01/14 02:16:37;;;;;;;46.97;21.75;;;;;;;;;;10425421;28;20475;-75
2023/01/14 02:21:40;;;;;;;51.33;22.23;;;;;;;;;;10442950;28;20032;-74
2023/01/14 02:26:56;;;;;;;48.15;22.25;;;;;;;;;;10384499;28;20033;-77
2023/01/14 02:32:15;;;;;;;61.83;25.88;;;;;;;;;;10387226;28;20111;-78
2023/01/14 02:37:28;;;;;;;61.55;28.10;;;;;;;;;;10424654;28;20021;-77
2023/01/14 02:47:52;;;;;;;72.35;34.35;;;;;;;;;;10442179;28;20028;-77
2023/01/14 02:52:52;;;;;;;63.63;29.52;;;;;;;;;;10423341;28;20547;-77
2023/01/14 02:57:56;;;;;;;58.37;25.60;;;;;;;;;;10424314;28;20021;-75
2023/01/14 03:02:56;;;;;;;63.95;26.63;;;;;;;;;;10423730;28;20028;-71
2023/01/14 03:08:15;;;;;;;50.75;24.77;;;;;;;;;;10394674;28;20045;-76
2023/01/14 03:13:41;;;;;;;56.95;23.63;;;;;;;;;;10414329;28;20025;-76
2023/01/14 03:18:52;;;;;;;55.47;23.45;;;;;;;;;;10423368;28;20106;-78
2023/01/14 03:24:03;;;;;;;61.53;23.02;;;;;;;;;;10423342;28;20025;-75
2023/01/14 03:29:08;;;;;;;48.75;23.33;;;;;;;;;;10423267;28;20044;-72
2023/01/14 03:34:10;;;;;;;51.50;23.55;;;;;;;;;;10423124;28;20199;-77
2023/01/14 03:39:13;;;;;;;46.70;23.13;;;;;;;;;;10422996;28;20017;-77
2023/01/14 03:44:25;;;;;;;53.33;22.88;;;;;;;;;;10422755;28;20086;-73
2023/01/14 03:49:26;;;;;;;44.63;22.35;;;;;;;;;;10440360;28;20071;-76
2023/01/14 03:54:29;;;;;;;49.60;21.93;;;;;;;;;;10440920;28;20013;-72
2023/01/14 03:59:36;;;;;;;52.30;21.90;;;;;;;;;;10441203;28;20025;-74
2023/01/14 04:04:36;;;;;;;46.38;20.15;;;;;;;;;;10436411;28;20036;-71
2023/01/14 04:09:37;;;;;;;44.40;19.58;;;;;;;;;;10414499;28;20017;-72
2023/01/14 04:19:56;;;;;;;54.42;23.15;;;;;;;;;;10442531;28;20597;-72
2023/01/14 04:24:56;;;;;;;51.50;21.30;;;;;;;;;;10425900;28;20029;-75
2023/01/14 04:29:57;;;;;;;43.33;19.67;;;;;;;;;;10445526;28;20080;-78
2023/01/14 04:34:57;;;;;;;47.17;20.73;;;;;;;;;;10428789;28;20505;-73
2023/01/14 04:39:59;;;;;;;40.95;18.92;;;;;;;;;;10427967;28;20020;-77
2023/01/14 04:45:00;;;;;;;46.00;20.48;;;;;;;;;;10426619;28;20028;-75
2023/01/14 04:50:30;;;;;;;42.20;19.92;;;;;;;;;;10426885;28;20880;-71
2023/01/14 04:55:24;;;;;;;44.50;18.38;;;;;;;;;;10444768;28;20021;-74
2023/01/14 05:00:24;;;;;;;41.50;18.90;;;;;;;;;;10444996;28;20029;-72
2023/01/14 05:05:24;;;;;;;44.00;18.25;;;;;;;;;;10427271;28;20698;-75
2023/01/14 05:10:25;;;;;;;38.83;18.33;;;;;;;;;;10423885;28;20471;-77
2023/01/14 05:15:31;;;;;;;21.60;11.15;;;;;;;;;;10444470;28;20494;-75
2023/01/14 05:20:32;;;;;;;20.40;10.45;;;;;;;;;;10443873;28;20063;-73
2023/01/14 05:25:34;;;;;;;23.15;10.20;;;;;;;;;;10443771;28;20083;-76
2023/01/14 05:30:34;;;;;;;18.25;9.15;;;;;;;;;;10441733;28;20045;-76
2023/01/14 05:35:35;;;;;;;16.67;8.75;;;;;;;;;;10425519;28;20028;-77
2023/01/14 05:40:35;;;;;;;16.02;7.20;;;;;;;;;;10420208;28;20026;-73
2023/01/14 05:45:48;;;;;;;11.65;6.63;;;;;;;;;;10422302;28;20025;-78
2023/01/14 05:50:49;;;;;;;24.77;8.20;;;;;;;;;;10404855;28;20025;-78
2023/01/14 05:55:50;;;;;;;14.18;7.82;;;;;;;;;;10426430;28;20021;-77
2023/01/14 06:06:23;;;;;;;16.92;7.88;;;;;;;;;;10427467;28;20680;-75
2023/01/14 06:11:24;;;;;;;18.00;8.65;;;;;;;;;;10405174;28;20071;-76
2023/01/14 06:16:28;;;;;;;23.20;11.57;;;;;;;;;;10431801;28;20025;-72
2023/01/14 06:21:30;;;;;;;23.30;11.25;;;;;;;;;;10458049;22;20574;-76
2023/01/14 06:26:33;;;;;;;20.52;9.98;;;;;;;;;;10457364;28;20020;-76
2023/01/14 06:31:33;;;;;;;15.55;7.75;;;;;;;;;;10470234;28;20036;-74
2023/01/14 06:36:34;;;;;;;14.80;7.57;;;;;;;;;;10484546;28;20032;-73
2023/01/14 06:41:34;;;;;;;12.55;7.65;;;;;;;;;;10459540;28;20090;-75
2023/01/14 06:46:35;;;;;;;24.10;12.73;;;;;;;;;;10464537;28;20429;-72
2023/01/14 06:51:39;;;;;;;62.22;26.45;;;;;;;;;;10463220;28;20127;-76
2023/01/14 06:56:39;;;;;;;48.65;22.88;;;;;;;;;;10458059;28;20074;-77
2023/01/14 07:01:39;;;;;;;48.83;23.48;;;;;;;;;;10472660;28;20082;-72
2023/01/14 07:06:39;;;;;;;55.80;24.35;;;;;;;;;;10463136;28;20035;-73
2023/01/14 07:11:41;;;;;;;51.80;23.92;;;;;;;;;;10432278;28;20029;-73
2023/01/14 07:16:41;;;;;;;56.30;24.75;;;;;;;;;;10462456;28;20060;-75
2023/01/14 07:21:41;;;;;;;52.40;23.37;;;;;;;;;;10440680;28;20164;-75
2023/01/14 07:26:42;;;;;;;50.10;19.98;;;;;;;;;;10469400;28;20115;-73
2023/01/14 07:31:42;;;;;;;23.90;11.95;;;;;;;;;;10458545;28;20298;-77
2023/01/14 07:36:42;;;;;;;24.50;12.95;;;;;;;;;;10474194;28;20090;-77
2023/01/14 07:41:43;;;;;;;29.35;12.98;;;;;;;;;;10479540;28;20059;-75
2023/01/14 07:46:43;;;;;;;29.07;14.13;;;;;;;;;;10465341;28;20031;-72
2023/01/14 07:51:44;;;;;;;35.15;16.17;;;;;;;;;;10460220;28;20029;-75
2023/01/14 07:56:48;;;;;;;44.67;19.88;;;;;;;;;;10485325;28;20044;-74
2023/01/14 08:01:48;;;;;;;41.10;19.60;;;;;;;;;;10488846;28;20047;-75
2023/01/14 08:06:49;;;;;;;42.63;19.20;;;;;;;;;;10465727;28;20036;-75
2023/01/14 08:11:49;;;;;;;43.33;19.37;;;;;;;;;;10466450;28;20036;-73
2023/01/14 08:16:49;;;;;;;54.08;24.25;;;;;;;;;;10485067;28;20356;-73
2023/01/14 08:21:50;;;;;;;49.67;22.00;;;;;;;;;;10463839;28;20056;-75
2023/01/14 08:26:50;;;;;;;54.75;25.50;;;;;;;;;;10481696;28;20021;-77
2023/01/14 08:31:56;;;;;;;67.05;35.30;;;;;;;;;;10461002;28;20356;-78
2023/01/14 08:36:56;;;;;;;79.63;36.70;;;;;;;;;;10467792;28;20032;-74
2023/01/14 08:41:57;;;;;;;57.63;27.17;;;;;;;;;;10484953;28;20516;-77
2023/01/14 08:46:58;;;;;;;40.83;18.55;;;;;;;;;;10463178;28;20505;-76
2023/01/14 08:51:58;;;;;;;39.73;17.23;;;;;;;;;;10465565;28;20503;-77
2023/01/14 08:56:59;;;;;;;12.90;6.30;;;;;;;;;;10465783;28;20531;-78
2023/01/14 09:02:00;;;;;;;13.35;6.63;;;;;;;;;;10478611;28;20051;-76
2023/01/14 09:17:38;;;;;;;15.35;5.50;;;;;;;;;;10498204;28;20486;-71
2023/01/14 09:22:39;;;;;;;11.87;5.27;;;;;;;;;;10496333;28;20070;-72
2023/01/14 09:27:39;;;;;;;8.75;4.93;;;;;;;;;;10464620;28;20033;-71
2023/01/14 09:32:40;;;;;;;7.82;4.38;;;;;;;;;;10483291;28;20024;-76
2023/01/14 09:37:41;;;;;;;11.35;4.90;;;;;;;;;;10491696;23;20053;-78
2023/01/14 09:42:42;;;;;;;18.57;5.63;;;;;;;;;;10462540;28;20029;-77
2023/01/14 09:47:43;;;;;;;13.55;5.97;;;;;;;;;;10474036;28;20350;-74
2023/01/14 09:52:49;;;;;;;10.70;5.53;;;;;;;;;;10477683;28;20716;-74
2023/01/14 09:57:55;;;;;;;10.23;4.57;;;;;;;;;;10447139;28;20020;-76
2023/01/14 10:02:58;;;;;;;10.50;5.20;;;;;;;;;;10464063;28;20040;-77
2023/01/14 10:08:09;;;;;;;8.38;5.25;;;;;;;;;;10456036;28;20467;-78
2023/01/14 10:13:32;;;;;;;10.77;6.00;;;;;;;;;;10469643;28;20028;-73
2023/01/14 10:18:38;;;;;;;13.88;6.35;;;;;;;;;;10461190;28;20029;-76
2023/01/14 10:23:40;;;;;;;10.10;5.40;;;;;;;;;;10450004;28;20511;-72
2023/01/14 10:28:41;;;;;;;11.75;5.15;;;;;;;;;;10437380;28;20044;-75
2023/01/14 10:33:42;;;;;;;18.35;6.90;;;;;;;;;;10431664;28;20029;-73
2023/01/14 10:38:42;;;;;;;14.02;6.85;;;;;;;;;;10429323;28;20052;-73
2023/01/14 10:43:44;;;;;;;12.77;6.32;;;;;;;;;;10434125;28;20029;-73
2023/01/14 10:48:49;;;;;;;10.73;6.50;;;;;;;;;;10417947;28;20040;-77
2023/01/14 10:54:07;;;;;;;16.45;7.40;;;;;;;;;;10414427;28;20135;-73
2023/01/14 10:59:37;;;;;;;14.82;6.32;;;;;;;;;;10413453;28;20083;-77
2023/01/14 11:04:42;;;;;;;16.55;8.30;;;;;;;;;;10396374;28;20052;-72
2023/01/14 11:09:42;;;;;;;16.42;8.63;;;;;;;;;;10416973;28;20028;-74
2023/01/14 11:14:42;;;;;;;19.27;10.33;;;;;;;;;;10437923;28;20503;-75
2023/01/14 11:19:43;;;;;;;20.70;11.10;;;;;;;;;;10423244;28;20077;-71
2023/01/14 11:24:44;;;;;;;26.13;12.23;;;;;;;;;;10442194;28;20055;-72
2023/01/14 11:29:46;;;;;;;29.98;12.30;;;;;;;;;;10438015;28;20029;-72
2023/01/14 11:35:03;;;;;;;33.67;15.52;;;;;;;;;;10426404;28;20525;-75
2023/01/14 11:40:04;;;;;;;29.45;14.98;;;;;;;;;;10413889;28;20493;-71
2023/01/14 11:45:07;;;;;;;37.20;17.38;;;;;;;;;;10434724;28;20380;-76
2023/01/14 11:50:21;;;;;;;33.00;17.75;;;;;;;;;;10436672;28;20144;-73
2023/01/14 11:55:22;;;;;;;47.17;22.13;;;;;;;;;;10439631;28;20055;-72
2023/01/14 12:00:23;;;;;;;51.55;22.95;;;;;;;;;;10422247;28;20124;-73
2023/01/14 12:05:24;;;;;;;49.88;21.70;;;;;;;;;;10420276;28;20029;-73
2023/01/14 12:10:27;;;;;;;45.50;20.88;;;;;;;;;;10397254;28;20124;-76
2023/01/14 12:21:07;;;;;;;38.63;18.40;;;;;;;;;;10437152;28;20025;-77
2023/01/14 12:26:15;;;;;;;32.13;15.38;;;;;;;;;;10441084;28;20037;-78
2023/01/14 12:31:22;;;;;;;27.08;13.05;;;;;;;;;;10440774;28;20054;-76
2023/01/14 12:36:33;;;;;;;21.10;9.52;;;;;;;;;;10435786;28;20029;-73
2023/01/14 12:46:55;;;;;;;24.58;10.48;;;;;;;;;;10443134;28;20033;-74
2023/01/14 12:51:55;;;;;;;17.60;9.32;;;;;;;;;;10428997;28;20025;-76
2023/01/14 12:56:57;;;;;;;17.85;8.07;;;;;;;;;;10427153;28;20025;-73
2023/01/14 13:02:02;;;;;;;14.20;8.13;;;;;;;;;;10426003;28;20017;-74
2023/01/14 13:07:03;;;;;;;21.50;8.05;;;;;;;;;;10412014;28;20494;-74
2023/01/14 13:12:04;;;;;;;16.15;8.05;;;;;;;;;;10425716;28;20032;-71
2023/01/14 13:17:06;;;;;;;14.45;7.60;;;;;;;;;;10429039;28;20025;-78
2023/01/14 13:22:09;;;;;;;19.05;9.60;;;;;;;;;;10442738;28;20021;-75
2023/01/14 13:27:28;;;;;;;16.40;8.63;;;;;;;;;;10425644;28;20021;-74
2023/01/14 13:32:47;;;;;;;18.00;8.25;;;;;;;;;;10442327;28;20029;-74
2023/01/14 13:37:49;;;;;;;17.50;7.53;;;;;;;;;;10431906;28;20049;-76
2023/01/14 13:42:59;;;;;;;17.73;7.53;;;;;;;;;;10441035;28;20037;-76
2023/01/14 13:48:11;;;;;;;17.52;9.73;;;;;;;;;;10410446;28;20029;-73
2023/01/14 13:53:18;;;;;;;20.13;8.90;;;;;;;;;;10418954;28;20017;-75
2023/01/14 13:58:21;;;;;;;19.45;9.13;;;;;;;;;;10437973;28;20594;-76
2023/01/14 14:03:35;;;;;;;23.70;9.18;;;;;;;;;;10422690;28;20056;-72
2023/01/14 14:08:36;;;;;;;21.95;10.10;;;;;;;;;;10464085;28;20025;-73
2023/01/14 14:19:09;;;;;;;20.30;9.48;;;;;;;;;;10434272;28;20035;-74
2023/01/14 14:24:17;;;;;;;23.38;10.73;;;;;;;;;;10441319;28;20035;-74
2023/01/14 14:29:19;;;;;;;24.65;10.88;;;;;;;;;;10422590;28;20494;-73
2023/01/14 14:34:22;;;;;;;20.65;9.05;;;;;;;;;;10423695;28;20028;-75
2023/01/14 14:39:37;;;;;;;20.20;8.10;;;;;;;;;;10421912;28;20491;-76
2023/01/14 14:44:37;;;;;;;19.23;9.50;;;;;;;;;;10438722;28;20029;-75
2023/01/14 14:49:38;;;;;;;16.05;8.00;;;;;;;;;;10440840;28;20029;-72
2023/01/14 14:54:38;;;;;;;24.83;9.15;;;;;;;;;;10440754;28;20504;-75
2023/01/14 14:59:39;;;;;;;15.32;8.05;;;;;;;;;;10440294;28;20021;-76
2023/01/14 15:04:39;;;;;;;17.92;6.80;;;;;;;;;;10422730;28;20108;-74
2023/01/14 15:09:43;;;;;;;21.23;9.37;;;;;;;;;;10421439;28;20024;-73
2023/01/14 15:14:53;;;;;;;16.67;8.02;;;;;;;;;;10439245;28;20566;-76
2023/01/14 15:19:55;;;;;;;20.13;9.02;;;;;;;;;;10436649;28;20048;-77
2023/01/14 15:24:55;;;;;;;20.05;8.07;;;;;;;;;;10420335;28;20408;-74
2023/01/14 15:29:57;;;;;;;20.00;7.87;;;;;;;;;;10407249;28;20926;-75
2023/01/14 15:35:37;;;;;;;19.92;8.88;;;;;;;;;;10422502;28;20256;-73
2023/01/14 15:40:39;;;;;;;17.02;7.95;;;;;;;;;;10295984;28;20108;-74
2023/01/14 15:45:43;;;;;;;15.15;7.55;;;;;;;;;;10382060;28;20029;-72
2023/01/14 15:50:51;;;;;;;15.88;8.60;;;;;;;;;;10437940;28;20042;-75
2023/01/14 15:56:19;;;;;;;19.58;9.27;;;;;;;;;;10428620;28;20434;-74
2023/01/14 16:01:23;;;;;;;21.65;9.85;;;;;;;;;;10420316;28;20470;-72
2023/01/14 16:06:24;;;;;;;23.13;11.80;;;;;;;;;;10427926;28;20021;-75
2023/01/14 16:11:27;;;;;;;26.83;11.10;;;;;;;;;;10443409;28;20028;-73
2023/01/14 16:16:28;;;;;;;22.77;11.00;;;;;;;;;;10432200;28;20078;-71
2023/01/14 16:21:28;;;;;;;22.65;10.82;;;;;;;;;;10436181;28;20027;-75
2023/01/14 16:26:29;;;;;;;26.58;9.70;;;;;;;;;;10452856;28;20021;-75
2023/01/14 16:31:29;;;;;;;25.30;9.80;;;;;;;;;;10427781;28;20021;-71
2023/01/14 16:36:29;;;;;;;25.05;11.43;;;;;;;;;;10426469;28;20491;-75
2023/01/14 16:41:29;;;;;;;25.10;11.70;;;;;;;;;;10432017;28;20079;-74
2023/01/14 16:46:30;;;;;;;29.67;11.60;;;;;;;;;;10428769;28;20043;-73
2023/01/14 16:51:30;;;;;;;24.55;12.10;;;;;;;;;;10425449;28;20021;-72
2023/01/14 16:56:30;;;;;;;20.07;10.03;;;;;;;;;;10428922;28;20017;-75
2023/01/14 17:01:31;;;;;;;25.42;10.98;;;;;;;;;;10424065;28;20283;-75
2023/01/14 17:06:32;;;;;;;26.17;10.38;;;;;;;;;;10423774;28;20036;-75
2023/01/14 17:16:51;;;;;;;26.42;11.05;;;;;;;;;;10442934;28;20017;-74
2023/01/14 17:21:51;;;;;;;34.13;11.15;;;;;;;;;;10420722;28;20487;-74
2023/01/14 17:26:52;;;;;;;23.70;9.73;;;;;;;;;;10419760;28;20569;-74
2023/01/14 17:31:52;;;;;;;20.20;9.77;;;;;;;;;;10421260;28;20517;-75
2023/01/14 17:36:52;;;;;;;23.20;10.23;;;;;;;;;;10418823;28;20029;-78
2023/01/14 17:42:12;;;;;;;23.85;9.98;;;;;;;;;;10440112;28;20406;-72
2023/01/14 17:47:14;;;;;;;21.17;10.48;;;;;;;;;;10422414;28;20494;-75
2023/01/14 17:52:15;;;;;;;24.83;10.40;;;;;;;;;;10419795;28;20069;-76
2023/01/14 17:57:18;;;;;;;30.90;11.18;;;;;;;;;;10422145;28;20031;-75
2023/01/14 18:02:20;;;;;;;23.67;11.32;;;;;;;;;;10423674;28;20024;-78
2023/01/14 18:07:21;;;;;;;22.98;10.95;;;;;;;;;;10415905;28;20028;-70
2023/01/14 18:12:21;;;;;;;26.87;11.90;;;;;;;;;;10447948;28;20040;-70
2023/01/14 18:17:23;;;;;;;24.45;10.25;;;;;;;;;;10437976;28;20271;-79
2023/01/14 18:22:23;;;;;;;24.13;11.15;;;;;;;;;;10435899;28;20053;-73
2023/01/14 18:27:26;;;;;;;30.25;12.27;;;;;;;;;;10434800;28;20024;-72
2023/01/14 18:32:26;;;;;;;25.27;11.35;;;;;;;;;;10435604;28;20035;-74
2023/01/14 18:37:27;;;;;;;28.50;11.25;;;;;;;;;;10418429;28;20032;-74
2023/01/14 18:42:27;;;;;;;31.50;11.97;;;;;;;;;;10435242;28;20521;-70
2023/01/14 18:47:29;;;;;;;24.92;10.70;;;;;;;;;;10437287;28;20020;-76
2023/01/14 18:52:29;;;;;;;25.73;10.88;;;;;;;;;;10417254;28;20025;-79
2023/01/14 18:57:29;;;;;;;27.77;12.23;;;;;;;;;;10434202;28;20086;-74
2023/01/14 19:02:31;;;;;;;32.97;12.80;;;;;;;;;;10432760;28;20286;-76
2023/01/14 19:07:31;;;;;;;37.55;12.57;;;;;;;;;;10417597;28;20450;-77
2023/01/14 19:12:31;;;;;;;37.60;14.02;;;;;;;;;;10435561;28;20040;-77
2023/01/14 19:17:35;;;;;;;39.47;13.80;;;;;;;;;;10423236;28;20124;-75
2023/01/14 19:22:35;;;;;;;31.05;12.50;;;;;;;;;;10433046;28;20033;-75
2023/01/14 19:27:35;;;;;;;35.63;13.02;;;;;;;;;;10428534;28;20032;-71
2023/01/14 19:32:35;;;;;;;32.60;12.87;;;;;;;;;;10441991;28;20033;-74
2023/01/14 19:37:36;;;;;;;32.85;13.48;;;;;;;;;;10442190;28;20029;-76
2023/01/14 19:42:36;;;;;;;33.88;15.05;;;;;;;;;;10425949;28;20040;-74
2023/01/14 19:47:36;;;;;;;29.70;12.23;;;;;;;;;;10444154;28;20090;-75
2023/01/14 19:52:37;;;;;;;37.83;14.75;;;;;;;;;;10428161;28;20090;-77
2023/01/14 19:57:37;;;;;;;43.90;15.05;;;;;;;;;;10425367;28;20441;-75
2023/01/14 20:02:40;;;;;;;35.72;15.27;;;;;;;;;;10428201;28;20033;-74
2023/01/14 20:07:40;;;;;;;37.97;14.57;;;;;;;;;;10460767;28;20040;-79
2023/01/14 20:12:41;;;;;;;41.03;14.45;;;;;;;;;;10452727;28;20029;-72
2023/01/14 20:17:41;;;;;;;39.40;15.93;;;;;;;;;;10457019;28;20029;-71
2023/01/14 20:22:43;;;;;;;39.55;14.77;;;;;;;;;;10445130;28;20422;-75
2023/01/14 20:27:43;;;;;;;37.22;15.32;;;;;;;;;;10443742;28;20025;-77
2023/01/14 20:32:45;;;;;;;36.40;14.23;;;;;;;;;;10440650;28;20418;-75
2023/01/14 20:37:45;;;;;;;44.05;15.68;;;;;;;;;;10435262;28;20482;-77
2023/01/14 20:42:45;;;;;;;41.10;14.80;;;;;;;;;;10441012;28;20112;-73
2023/01/14 20:53:04;;;;;;;37.65;15.80;;;;;;;;;;10443895;28;20570;-75
2023/01/14 20:58:09;;;;;;;40.57;14.97;;;;;;;;;;10426290;28;20036;-72
2023/01/14 21:03:10;;;;;;;46.72;15.68;;;;;;;;;;10437195;28;20841;-73
2023/01/14 21:08:10;;;;;;;40.70;16.27;;;;;;;;;;10442620;28;20083;-72
2023/01/14 21:22:54;;;;;;;35.87;15.10;;;;;;;;;;10437422;28;20275;-74
2023/01/14 21:23:50;;;;;;;44.17;16.27;;;;;;;;;;10442474;28;20383;-74
2023/01/14 21:28:50;;;;;;;48.03;16.43;;;;;;;;;;10443584;28;20029;-74
2023/01/14 21:33:51;;;;;;;51.03;17.02;;;;;;;;;;10443265;28;20416;-74
2023/01/14 21:38:51;;;;;;;40.75;15.90;;;;;;;;;;10428576;28;20131;-73
2023/01/14 21:43:52;;;;;;;38.13;15.70;;;;;;;;;;10443325;28;20021;-74
2023/01/14 21:48:52;;;;;;;37.20;15.70;;;;;;;;;;10438794;28;20042;-71
2023/01/14 21:53:53;;;;;;;30.42;13.02;;;;;;;;;;10421424;28;20056;-75
2023/01/14 21:58:53;;;;;;;36.10;14.98;;;;;;;;;;10421440;28;20017;-72
2023/01/14 22:03:54;;;;;;;28.90;12.20;;;;;;;;;;10430678;28;20028;-71
2023/01/14 22:08:54;;;;;;;37.05;13.90;;;;;;;;;;10435440;28;20116;-74
2023/01/14 22:13:54;;;;;;;48.65;16.10;;;;;;;;;;10434560;28;20055;-76
2023/01/14 22:18:55;;;;;;;34.83;13.93;;;;;;;;;;10430648;28;20017;-75
2023/01/14 22:23:55;;;;;;;34.07;14.10;;;;;;;;;;10406398;28;20035;-76
2023/01/14 22:28:55;;;;;;;39.10;14.23;;;;;;;;;;10415946;28;20630;-77
2023/01/14 22:33:58;;;;;;;37.70;15.77;;;;;;;;;;10415106;28;20267;-74
2023/01/14 22:38:58;;;;;;;37.80;14.35;;;;;;;;;;10416135;28;20440;-74
2023/01/14 22:43:59;;;;;;;38.53;15.38;;;;;;;;;;10441597;28;20028;-77
2023/01/14 22:48:59;;;;;;;33.05;13.35;;;;;;;;;;10441969;28;20023;-76
2023/01/14 22:53:59;;;;;;;30.40;11.90;;;;;;;;;;10412011;28;20082;-76
2023/01/14 22:59:00;;;;;;;33.37;12.93;;;;;;;;;;10440729;28;20907;-74
2023/01/14 23:04:00;;;;;;;27.85;12.70;;;;;;;;;;10441997;28;20083;-76
2023/01/14 23:09:00;;;;;;;34.70;14.07;;;;;;;;;;10423561;28;20029;-74
2023/01/14 23:14:02;;;;;;;37.92;13.63;;;;;;;;;;10426701;28;20133;-80
2023/01/14 23:19:06;;;;;;;33.78;12.25;;;;;;;;;;10423459;28;20017;-74
2023/01/14 23:24:07;;;;;;;31.60;13.57;;;;;;;;;;10424185;28;20033;-77
2023/01/14 23:29:07;;;;;;;36.75;13.65;;;;;;;;;;10435595;28;20047;-74
2023/01/14 23:34:08;;;;;;;31.50;12.17;;;;;;;;;;10437031;28;20025;-75
2023/01/14 23:39:08;;;;;;;31.30;13.40;;;;;;;;;;10440146;28;20045;-76
2023/01/14 23:44:10;;;;;;;35.85;13.60;;;;;;;;;;10423438;28;20466;-75
2023/01/14 23:49:10;;;;;;;25.25;12.73;;;;;;;;;;10423368;28;20170;-73
2023/01/14 23:54:11;;;;;;;32.20;12.90;;;;;;;;;;10445023;28;20094;-80
2023/01/14 23:59:11;;;;;;;36.95;13.00;;;;;;;;;;10439846;28;20405;-78
